createdAt,value
2022-12-05T00:00:33.917Z,4.78
2022-12-05T00:03:08.738Z,4.63
2022-12-05T00:05:45.706Z,5.60
2022-12-05T00:11:18.457Z,5.85
2022-12-05T00:17:11.326Z,7.43
2022-12-05T00:19:45.538Z,5.68
2022-12-05T00:22:26.958Z,5.90
2022-12-05T00:24:57.776Z,4.72
2022-12-05T00:27:28.438Z,4.75
2022-12-05T00:30:08.026Z,6.78
2022-12-05T00:32:35.923Z,5.97
2022-12-05T00:35:07.916Z,4.82
2022-12-05T00:37:43.550Z,4.07
2022-12-05T00:40:18.623Z,5.30
2022-12-05T00:45:48.005Z,3.55
2022-12-05T00:48:31.938Z,6.32
2022-12-05T00:51:15.954Z,4.47
2022-12-05T00:53:47.556Z,4.63
2022-12-05T00:56:19.711Z,5.43
2022-12-05T00:58:58.730Z,5.10
2022-12-05T01:01:46.012Z,6.97
2022-12-05T01:04:27.068Z,7.07
2022-12-05T01:07:05.354Z,5.85
2022-12-05T01:09:41.435Z,7.53
2022-12-05T01:12:36.603Z,8.15
2022-12-05T01:15:12.146Z,5.53
2022-12-05T01:17:47.277Z,5.75
2022-12-05T01:20:18.024Z,3.88
2022-12-05T01:22:48.448Z,8.60
2022-12-05T01:25:39.908Z,4.20
2022-12-05T01:28:18.174Z,4.78
2022-12-05T01:31:29.074Z,6.28
2022-12-05T01:34:38.186Z,5.38
2022-12-05T01:37:11.539Z,4.13
2022-12-05T01:43:14.673Z,3.63
2022-12-05T01:49:37.744Z,4.13
2022-12-05T01:52:27.682Z,3.45
2022-12-05T01:55:00.083Z,4.57
2022-12-05T01:57:28.059Z,3.85
2022-12-05T02:00:02.736Z,4.18
2022-12-05T02:03:07.723Z,4.70
2022-12-05T02:21:38.575Z,8.50
2022-12-05T02:24:50.507Z,3.72
2022-12-05T02:28:01.372Z,4.93
2022-12-05T02:31:01.698Z,5.50
2022-12-05T02:36:56.165Z,9.10
2022-12-05T02:39:44.397Z,4.35
2022-12-05T02:42:14.167Z,7.15
2022-12-05T02:44:56.756Z,5.82
2022-12-05T02:50:23.718Z,6.25
2022-12-05T02:52:54.443Z,2.97
2022-12-05T02:55:35.065Z,6.85
2022-12-05T02:58:09.448Z,2.88
2022-12-05T03:00:42.750Z,7.25
2022-12-05T03:03:29.468Z,6.28
2022-12-05T03:06:19.576Z,7.85
2022-12-05T03:09:02.661Z,5.25
2022-12-05T03:11:42.372Z,5.13
2022-12-05T03:14:18.571Z,4.47
2022-12-05T03:16:50.373Z,4.13
2022-12-05T03:19:57.919Z,4.75
2022-12-05T03:22:42.571Z,6.00
2022-12-05T03:25:15.296Z,6.30
2022-12-05T03:28:30.215Z,5.20
2022-12-05T03:31:09.145Z,3.63
2022-12-05T03:33:46.973Z,6.20
2022-12-05T03:36:28.636Z,5.30
2022-12-05T03:39:10.405Z,6.65
2022-12-05T03:41:47.756Z,4.30
2022-12-05T03:44:37.048Z,6.90
2022-12-05T03:47:12.671Z,5.65
2022-12-05T03:49:47.656Z,5.35
2022-12-05T03:53:17.542Z,5.82
2022-12-05T03:55:35.510Z,7.88
2022-12-05T03:58:12.765Z,6.78
2022-12-05T04:00:47.286Z,7.47
2022-12-05T04:03:23.262Z,4.40
2022-12-05T04:05:51.643Z,5.15
2022-12-05T04:08:25.461Z,6.25
2022-12-05T04:11:34.126Z,4.85
2022-12-05T04:14:38.532Z,6.20
2022-12-05T04:17:39.268Z,7.40
2022-12-05T04:20:43.821Z,6.20
2022-12-05T04:23:37.333Z,5.43
2022-12-05T04:26:15.657Z,7.90
2022-12-05T04:29:08.384Z,7.00
2022-12-05T04:31:45.852Z,5.55
2022-12-05T04:34:40.312Z,4.32
2022-12-05T04:37:16.452Z,8.50
2022-12-05T04:40:01.880Z,7.20
2022-12-05T04:42:39.298Z,5.78
2022-12-05T04:45:09.756Z,7.63
2022-12-05T04:47:45.079Z,5.68
2022-12-05T04:50:16.058Z,9.40
2022-12-05T04:52:58.694Z,6.15
2022-12-05T04:58:00.385Z,3.78
2022-12-05T05:00:37.597Z,5.47
2022-12-05T05:03:11.426Z,7.43
2022-12-05T05:05:51.149Z,3.53
2022-12-05T05:08:31.522Z,4.13
2022-12-05T05:11:13.461Z,4.80
2022-12-05T05:13:44.376Z,5.65
2022-12-05T05:16:29.319Z,4.90
2022-12-05T05:19:12.320Z,4.82
2022-12-05T05:21:42.754Z,8.45
2022-12-05T05:24:17.313Z,6.35
2022-12-05T05:26:55.486Z,5.93
2022-12-05T05:29:32.349Z,6.57
2022-12-05T05:32:08.232Z,5.82
2022-12-05T05:34:43.953Z,6.90
2022-12-05T05:37:13.491Z,6.63
2022-12-05T05:39:46.679Z,4.57
2022-12-05T05:42:28.213Z,5.70
2022-12-05T05:44:56.357Z,7.70
2022-12-05T05:47:30.897Z,8.02
2022-12-05T05:49:59.553Z,6.68
2022-12-05T05:52:36.498Z,9.45
2022-12-05T05:55:06.958Z,10.52
2022-12-05T05:57:38.657Z,7.10
2022-12-05T06:00:09.387Z,5.80
2022-12-05T06:02:42.801Z,8.35
2022-12-05T06:07:43.542Z,10.32
2022-12-05T06:10:11.084Z,4.47
2022-12-05T06:12:41.070Z,8.73
2022-12-05T06:15:08.709Z,11.68
2022-12-05T06:17:45.360Z,14.57
2022-12-05T06:20:13.391Z,8.75
2022-12-05T06:22:40.822Z,6.15
2022-12-05T06:25:08.742Z,8.38
2022-12-05T06:27:35.596Z,6.70
2022-12-05T06:30:02.614Z,6.55
2022-12-05T06:32:30.278Z,7.47
2022-12-05T06:34:57.099Z,10.20
2022-12-05T06:37:24.119Z,8.73
2022-12-05T06:39:52.843Z,12.30
2022-12-05T06:42:22.258Z,8.43
2022-12-05T06:44:49.226Z,7.88
2022-12-05T06:47:16.294Z,7.22
2022-12-05T06:49:43.219Z,7.93
2022-12-05T06:52:10.181Z,5.05
2022-12-05T06:54:37.127Z,6.28
2022-12-05T06:57:04.298Z,3.80
2022-12-05T06:59:31.122Z,4.13
2022-12-05T07:01:58.289Z,6.55
2022-12-05T07:04:25.428Z,9.60
2022-12-05T07:06:54.395Z,6.35
2022-12-05T07:09:44.129Z,8.80
2022-12-05T07:12:12.011Z,6.80
2022-12-05T07:14:47.614Z,5.38
2022-12-05T07:17:16.447Z,7.22
2022-12-05T07:19:43.975Z,4.38
2022-12-05T07:22:15.707Z,7.45
2022-12-05T07:24:44.412Z,5.43
2022-12-05T07:27:12.274Z,11.85
2022-12-05T07:29:39.114Z,8.73
2022-12-05T07:32:06.656Z,9.70
2022-12-05T07:34:33.812Z,6.28
2022-12-05T07:37:00.998Z,6.05
2022-12-05T07:39:28.198Z,5.88
2022-12-05T07:41:55.126Z,10.65
2022-12-05T07:44:22.214Z,8.88
2022-12-05T07:46:49.171Z,4.93
2022-12-05T07:49:16.272Z,4.88
2022-12-05T07:51:43.144Z,4.57
2022-12-05T07:54:09.955Z,9.85
2022-12-05T07:56:36.943Z,7.85
2022-12-05T07:59:04.014Z,5.20
2022-12-05T08:01:31.113Z,6.28
2022-12-05T08:03:59.255Z,7.20
2022-12-05T08:06:30.995Z,3.78
2022-12-05T08:08:58.100Z,8.02
2022-12-05T08:11:30.914Z,9.68
2022-12-05T08:13:58.548Z,5.82
2022-12-05T08:16:28.514Z,7.45
2022-12-05T08:19:01.183Z,5.55
2022-12-05T08:21:28.628Z,9.60
2022-12-05T08:23:56.068Z,5.38
2022-12-05T08:26:28.238Z,7.97
2022-12-05T08:29:01.418Z,7.57
2022-12-05T08:31:31.144Z,6.65
2022-12-05T08:34:01.121Z,7.38
2022-12-05T08:36:29.791Z,5.03
2022-12-05T08:38:58.705Z,13.98
2022-12-05T08:41:28.651Z,9.00
2022-12-05T08:44:05.478Z,25.55
2022-12-05T08:46:34.222Z,37.08
2022-12-05T08:49:01.399Z,42.90
2022-12-05T08:51:28.279Z,36.33
2022-12-05T08:53:56.250Z,39.28
2022-12-05T08:56:27.271Z,44.78
2022-12-05T08:58:58.482Z,32.95
2022-12-05T09:01:32.183Z,29.27
2022-12-05T09:04:00.668Z,44.88
2022-12-05T09:06:29.658Z,41.55
2022-12-05T09:09:00.442Z,43.13
2022-12-05T09:11:31.560Z,44.05
2022-12-05T09:14:00.491Z,49.42
2022-12-05T09:16:35.118Z,42.92
2022-12-05T09:19:03.829Z,43.13
2022-12-05T09:21:32.061Z,45.25
2022-12-05T09:24:00.382Z,40.45
2022-12-05T09:26:29.809Z,46.90
2022-12-05T09:28:57.559Z,41.50
2022-12-05T09:31:30.611Z,39.58
2022-12-05T09:33:59.459Z,43.70
2022-12-05T09:36:30.034Z,46.65
2022-12-05T09:39:01.405Z,48.33
2022-12-05T09:42:04.953Z,45.78
2022-12-05T09:44:44.062Z,42.15
2022-12-05T09:47:23.119Z,44.38
2022-12-05T09:49:53.884Z,39.92
2022-12-05T09:53:02.076Z,41.28
2022-12-05T09:55:53.988Z,39.67
2022-12-05T09:58:38.266Z,37.35
2022-12-05T10:01:41.662Z,40.78
2022-12-05T10:04:34.733Z,37.90
2022-12-05T10:07:35.851Z,40.60
2022-12-05T10:10:21.438Z,37.80
2022-12-05T10:12:53.980Z,25.23
2022-12-05T10:15:33.282Z,31.73
2022-12-05T10:18:05.359Z,33.20
2022-12-05T10:21:03.328Z,40.80
2022-12-05T10:23:57.689Z,29.30
2022-12-05T10:26:33.616Z,44.35
2022-12-05T10:29:29.855Z,42.05
2022-12-05T10:32:27.389Z,43.83
2022-12-05T10:35:00.038Z,28.13
2022-12-05T10:37:27.400Z,41.47
2022-12-05T10:39:55.370Z,28.80
2022-12-05T10:42:28.356Z,30.40
2022-12-05T10:45:17.099Z,17.08
2022-12-05T10:47:44.500Z,45.22
2022-12-05T10:50:23.277Z,39.53
2022-12-05T10:52:52.377Z,40.15
2022-12-05T10:55:19.992Z,40.75
2022-12-05T10:57:52.375Z,41.17
2022-12-05T11:00:29.921Z,43.08
2022-12-05T11:03:05.686Z,35.00
2022-12-05T11:05:40.347Z,43.80
2022-12-05T11:08:41.411Z,35.83
2022-12-05T11:11:21.876Z,28.10
2022-12-05T11:14:29.766Z,28.70
2022-12-05T11:16:59.341Z,50.40
2022-12-05T11:19:32.481Z,44.63
2022-12-05T11:22:17.244Z,43.05
2022-12-05T11:24:44.816Z,37.15
2022-12-05T11:27:17.859Z,45.03
2022-12-05T11:29:55.150Z,42.70
2022-12-05T11:32:28.136Z,44.38
2022-12-05T11:35:13.488Z,36.75
2022-12-05T11:37:46.971Z,40.78
2022-12-05T11:40:28.917Z,29.10
2022-12-05T11:43:06.110Z,43.90
2022-12-05T11:45:51.928Z,50.10
2022-12-05T11:48:30.875Z,19.80
2022-12-05T11:51:10.573Z,36.90
2022-12-05T11:53:59.145Z,42.78
2022-12-05T11:56:41.601Z,35.70
2022-12-05T11:59:35.411Z,40.60
2022-12-05T12:02:25.521Z,37.15
2022-12-05T12:05:13.991Z,41.00
2022-12-05T12:07:41.533Z,43.97
2022-12-05T12:10:26.576Z,33.83
2022-12-05T12:13:16.309Z,37.97
2022-12-05T12:15:53.485Z,42.85
2022-12-05T12:18:35.561Z,35.20
2022-12-05T12:21:33.931Z,40.03
2022-12-05T12:24:25.725Z,39.30
2022-12-05T12:27:07.564Z,43.05
2022-12-05T12:29:46.272Z,31.08
2022-12-05T12:32:21.802Z,30.38
2022-12-05T12:35:16.738Z,35.58
2022-12-05T12:37:55.753Z,32.30
2022-12-05T12:40:36.422Z,40.33
2022-12-05T12:43:44.736Z,38.65
2022-12-05T12:46:14.740Z,37.10
2022-12-05T12:48:44.758Z,33.85
2022-12-05T12:51:13.848Z,34.30
2022-12-05T12:54:07.078Z,32.70
2022-12-05T12:56:50.758Z,35.22
2022-12-05T12:59:55.584Z,38.03
2022-12-05T13:02:27.075Z,36.05
2022-12-05T13:05:02.169Z,38.72
2022-12-05T13:07:42.977Z,32.83
2022-12-05T13:10:30.488Z,34.65
2022-12-05T13:12:59.909Z,35.50
2022-12-05T13:15:41.873Z,22.13
2022-12-05T13:18:39.515Z,30.83
2022-12-05T13:21:09.013Z,33.00
2022-12-05T13:23:50.019Z,38.95
2022-12-05T13:26:17.714Z,35.75
2022-12-05T13:28:47.270Z,36.35
2022-12-05T13:31:16.968Z,30.63
2022-12-05T13:33:47.113Z,31.90
2022-12-05T13:36:40.537Z,30.88
2022-12-05T13:39:46.318Z,33.55
2022-12-05T13:42:22.705Z,30.25
2022-12-05T13:45:04.895Z,30.85
2022-12-05T13:47:48.969Z,31.67
2022-12-05T13:50:22.017Z,33.05
2022-12-05T13:52:52.466Z,31.90
2022-12-05T13:55:54.775Z,32.65
2022-12-05T13:58:24.785Z,27.45
2022-12-05T14:01:12.308Z,25.55
2022-12-05T14:03:39.230Z,28.55
2022-12-05T14:06:07.142Z,22.00
2022-12-05T14:08:40.485Z,13.27
2022-12-05T14:11:10.859Z,28.33
2022-12-05T14:13:42.559Z,12.13
2022-12-05T14:16:24.961Z,8.48
2022-12-05T14:19:10.942Z,10.52
2022-12-05T14:22:16.708Z,9.45
2022-12-05T14:24:54.705Z,5.75
2022-12-05T14:27:49.519Z,7.38
2022-12-05T14:30:58.643Z,7.40
2022-12-05T14:33:25.803Z,7.50
2022-12-05T14:35:53.718Z,8.80
2022-12-05T14:38:30.227Z,7.13
2022-12-05T14:41:10.676Z,5.63
2022-12-05T14:43:39.002Z,6.53
2022-12-05T14:46:20.339Z,9.75
2022-12-05T14:48:48.715Z,6.75
2022-12-05T14:51:30.745Z,4.70
2022-12-05T14:54:10.350Z,8.07
2022-12-05T14:56:46.510Z,6.15
2022-12-05T14:59:28.927Z,5.57
2022-12-05T15:02:00.287Z,11.75
2022-12-05T15:04:51.184Z,13.43
2022-12-05T15:07:21.364Z,4.50
2022-12-05T15:10:11.316Z,9.52
2022-12-05T15:12:47.871Z,7.43
2022-12-05T15:15:25.972Z,10.88
2022-12-05T15:18:15.028Z,6.55
2022-12-05T15:20:48.150Z,5.00
2022-12-05T15:24:06.247Z,4.03
2022-12-05T15:26:54.271Z,3.35
2022-12-05T15:29:21.174Z,5.03
2022-12-05T15:31:55.186Z,10.65
2022-12-05T15:34:55.562Z,6.50
2022-12-05T15:37:31.443Z,2.55
2022-12-05T15:40:08.804Z,6.65
2022-12-05T15:42:40.994Z,4.75
2022-12-05T15:45:13.782Z,6.40
2022-12-05T15:47:42.507Z,6.15
2022-12-05T15:50:14.507Z,5.95
2022-12-05T15:52:53.731Z,6.50
2022-12-05T15:55:24.568Z,5.03
2022-12-05T15:58:09.612Z,8.00
2022-12-05T16:00:47.354Z,6.20
2022-12-05T16:03:26.787Z,7.75
2022-12-05T16:06:03.993Z,2.97
2022-12-05T16:08:40.700Z,7.35
2022-12-05T16:11:12.614Z,6.13
2022-12-05T16:13:45.199Z,4.13
2022-12-05T16:16:25.210Z,4.22
2022-12-05T16:18:59.187Z,9.98
2022-12-05T16:21:39.443Z,12.07
2022-12-05T16:24:08.455Z,14.32
2022-12-05T16:26:39.646Z,15.55
2022-12-05T16:29:09.410Z,14.95
2022-12-05T16:31:36.943Z,13.13
2022-12-05T16:34:15.070Z,11.73
2022-12-05T16:36:50.252Z,6.05
2022-12-05T16:39:19.941Z,5.65
2022-12-05T16:41:47.458Z,9.93
2022-12-05T16:44:36.415Z,13.70
2022-12-05T16:49:42.685Z,12.95
2022-12-05T16:52:14.694Z,13.55
2022-12-05T16:54:46.078Z,15.18
2022-12-05T16:57:15.167Z,18.80
2022-12-05T16:59:43.768Z,15.52
2022-12-05T17:02:14.127Z,16.15
2022-12-05T17:04:43.149Z,18.10
2022-12-05T17:07:11.915Z,15.13
2022-12-05T17:09:38.859Z,17.08
2022-12-05T17:12:24.687Z,11.27
2022-12-05T17:14:51.627Z,11.55
2022-12-05T17:17:18.937Z,5.35
2022-12-05T17:19:46.047Z,4.15
2022-12-05T17:22:15.368Z,3.60
2022-12-05T17:24:42.248Z,10.00
2022-12-05T17:27:12.705Z,5.40
2022-12-05T17:29:39.643Z,7.20
2022-12-05T17:32:06.688Z,10.73
2022-12-05T17:34:34.232Z,5.15
2022-12-05T17:37:01.253Z,2.80
2022-12-05T17:39:29.106Z,4.47
2022-12-05T17:41:56.572Z,4.40
2022-12-05T17:44:24.065Z,3.22
2022-12-05T17:46:51.241Z,4.78
2022-12-05T17:49:18.577Z,3.13
2022-12-05T17:52:20.084Z,4.43
2022-12-05T17:54:32.962Z,5.68
2022-12-05T17:56:59.768Z,5.18
2022-12-05T17:59:26.723Z,2.03
2022-12-05T18:01:53.789Z,4.10
2022-12-05T18:04:23.385Z,6.57
2022-12-05T18:06:51.311Z,4.57
2022-12-05T18:09:19.432Z,5.43
2022-12-05T18:11:47.289Z,4.00
2022-12-05T18:14:15.464Z,4.80
2022-12-05T18:16:43.411Z,7.18
2022-12-05T18:19:10.901Z,6.18
2022-12-05T18:21:38.165Z,8.80
2022-12-05T18:24:05.658Z,5.63
2022-12-05T18:26:32.625Z,2.05
2022-12-05T18:28:59.503Z,4.50
2022-12-05T18:31:26.562Z,3.58
2022-12-05T18:33:53.556Z,4.40
2022-12-05T18:36:21.546Z,5.13
2022-12-05T18:38:54.311Z,6.50
2022-12-05T18:41:23.500Z,6.65
2022-12-05T18:43:51.119Z,4.20
2022-12-05T18:46:18.117Z,3.45
2022-12-05T18:48:47.760Z,4.15
2022-12-05T18:51:18.142Z,2.75
2022-12-05T18:53:51.808Z,3.25
2022-12-05T18:56:23.405Z,4.90
2022-12-05T18:58:58.356Z,2.80
2022-12-05T19:01:26.871Z,5.10
2022-12-05T19:03:54.273Z,2.53
2022-12-05T19:06:24.173Z,3.00
2022-12-05T19:08:55.405Z,3.00
2022-12-05T19:11:24.029Z,4.35
2022-12-05T19:13:58.424Z,4.05
2022-12-05T19:16:26.851Z,3.40
2022-12-05T19:18:56.490Z,3.08
2022-12-05T19:21:25.001Z,5.65
2022-12-05T19:23:52.513Z,3.58
2022-12-05T19:26:20.071Z,4.00
2022-12-05T19:28:47.521Z,4.88
2022-12-05T19:31:17.424Z,3.50
2022-12-05T19:33:49.675Z,2.53
2022-12-05T19:36:25.310Z,2.63
2022-12-05T19:38:54.218Z,4.22
2022-12-05T19:41:27.461Z,4.30
2022-12-05T19:43:55.283Z,5.85
2022-12-05T19:46:30.492Z,6.32
2022-12-05T19:49:07.186Z,4.30
2022-12-05T19:51:35.002Z,4.47
2022-12-05T19:54:03.628Z,4.65
2022-12-05T19:56:32.093Z,2.67
2022-12-05T19:58:59.507Z,3.50
2022-12-05T20:01:32.641Z,4.63
2022-12-05T20:04:02.403Z,3.90
2022-12-05T20:06:34.646Z,5.93
2022-12-05T20:09:02.701Z,5.03
2022-12-05T20:11:31.274Z,4.10
2022-12-05T20:14:00.818Z,3.88
2022-12-05T20:16:28.909Z,3.97
2022-12-05T20:18:58.955Z,2.90
2022-12-05T20:21:28.433Z,4.70
2022-12-05T20:23:56.634Z,3.88
2022-12-05T20:26:26.094Z,3.45
2022-12-05T20:28:54.607Z,3.97
2022-12-05T20:31:23.720Z,3.08
2022-12-05T20:33:52.966Z,3.78
2022-12-05T20:36:25.720Z,1.80
2022-12-05T20:39:02.278Z,4.72
2022-12-05T20:41:29.455Z,4.80
2022-12-05T20:44:04.682Z,4.75
2022-12-05T20:46:32.710Z,3.53
2022-12-05T20:49:00.119Z,5.57
2022-12-05T20:51:29.548Z,3.40
2022-12-05T20:53:58.190Z,5.05
2022-12-05T20:56:28.141Z,4.32
2022-12-05T20:58:57.543Z,4.22
2022-12-05T21:05:10.515Z,2.80
2022-12-05T21:08:00.686Z,3.88
2022-12-05T21:11:05.398Z,5.68
2022-12-05T21:16:56.040Z,5.35
2022-12-05T21:19:36.884Z,4.07
2022-12-05T21:22:07.827Z,4.47
2022-12-05T21:24:54.346Z,4.47
2022-12-05T21:27:35.611Z,3.80
2022-12-05T21:30:03.146Z,3.65
2022-12-05T21:32:35.155Z,4.05
2022-12-05T21:35:08.851Z,4.10
2022-12-05T21:37:42.823Z,6.38
2022-12-05T21:40:19.399Z,4.20
2022-12-05T21:42:51.929Z,2.58
2022-12-05T21:45:21.099Z,7.70
2022-12-05T21:48:06.560Z,3.13
2022-12-05T21:54:36.734Z,5.88
2022-12-05T21:57:30.599Z,7.85
2022-12-05T22:10:43.951Z,2.47
2022-12-05T22:21:48.258Z,4.95
2022-12-05T22:40:01.679Z,3.00
2022-12-05T22:43:25.016Z,4.28
2022-12-05T22:46:24.766Z,7.57
2022-12-05T22:49:18.980Z,4.47
2022-12-05T23:26:56.071Z,3.42
2022-12-05T23:29:52.184Z,4.88
2022-12-05T23:32:24.439Z,3.00
2022-12-05T23:35:21.775Z,3.60
2022-12-05T23:37:53.039Z,7.55
2022-12-05T23:40:44.639Z,3.20
2022-12-05T23:43:25.947Z,3.53
2022-12-05T23:46:00.239Z,4.95
2022-12-05T23:48:35.481Z,2.60
2022-12-05T23:51:11.344Z,2.15
2022-12-05T23:53:46.356Z,5.43
2022-12-05T23:56:20.836Z,2.30
2022-12-05T23:59:08.640Z,2.70
